createdAt,value
2022-11-04T00:00:28.596Z,9.55
2022-11-04T00:01:28.418Z,9.63
2022-11-04T00:02:30.260Z,9.63
2022-11-04T00:03:32.405Z,9.67
2022-11-04T00:04:35.093Z,9.68
2022-11-04T00:05:37.952Z,9.71
2022-11-04T00:06:40.310Z,9.72
2022-11-04T00:07:41.995Z,9.74
2022-11-04T00:08:52.785Z,9.75
2022-11-04T00:09:55.064Z,9.76
2022-11-04T00:10:58.866Z,9.69
2022-11-04T00:12:00.585Z,9.66
2022-11-04T00:13:02.541Z,9.68
2022-11-04T00:14:06.303Z,9.64
2022-11-04T00:15:08.674Z,9.64
2022-11-04T00:16:12.733Z,9.61
2022-11-04T00:17:15.109Z,9.61
2022-11-04T00:18:17.228Z,9.62
2022-11-04T00:19:19.238Z,9.61
2022-11-04T00:20:21.114Z,9.65
2022-11-04T00:21:22.858Z,9.64
2022-11-04T00:22:25.345Z,9.61
2022-11-04T00:23:27.338Z,9.61
2022-11-04T00:24:29.460Z,9.58
2022-11-04T00:25:31.335Z,9.55
2022-11-04T00:26:33.383Z,9.58
2022-11-04T00:27:35.134Z,9.56
2022-11-04T00:28:36.847Z,9.54
2022-11-04T00:29:38.578Z,9.49
2022-11-04T00:30:40.318Z,9.41
2022-11-04T00:31:41.949Z,9.41
2022-11-04T00:32:43.681Z,9.20
2022-11-04T00:33:46.716Z,9.07
2022-11-04T00:34:48.666Z,8.64
2022-11-04T00:35:51.963Z,8.47
2022-11-04T00:36:54.313Z,8.52
2022-11-04T00:37:56.408Z,8.65
2022-11-04T00:38:58.317Z,8.57
2022-11-04T00:40:00.054Z,8.59
2022-11-04T00:41:01.791Z,8.59
2022-11-04T00:42:03.675Z,8.67
2022-11-04T00:43:05.675Z,8.76
2022-11-04T00:44:07.579Z,8.88
2022-11-04T00:45:10.035Z,8.90
2022-11-04T00:46:12.853Z,8.99
2022-11-04T00:47:15.057Z,9.09
2022-11-04T00:48:17.761Z,9.11
2022-11-04T00:49:19.484Z,9.14
2022-11-04T00:50:21.332Z,9.18
2022-11-04T00:51:23.901Z,9.33
2022-11-04T00:52:25.649Z,9.33
2022-11-04T00:53:27.272Z,9.35
2022-11-04T00:54:29.107Z,9.39
2022-11-04T00:55:30.765Z,9.47
2022-11-04T00:56:32.690Z,9.53
2022-11-04T00:57:34.341Z,9.54
2022-11-04T00:58:36.351Z,9.58
2022-11-04T00:59:39.310Z,9.65
2022-11-04T01:00:41.179Z,9.69
2022-11-04T01:01:42.994Z,9.72
2022-11-04T01:02:45.758Z,9.73
2022-11-04T01:03:50.318Z,9.78
2022-11-04T01:04:54.183Z,9.82
2022-11-04T01:05:58.032Z,9.85
2022-11-04T01:07:02.031Z,9.89
2022-11-04T01:08:04.296Z,9.91
2022-11-04T01:09:10.237Z,9.94
2022-11-04T01:10:12.584Z,9.96
2022-11-04T01:11:16.237Z,9.98
2022-11-04T01:12:18.019Z,10.00
2022-11-04T01:13:20.281Z,9.99
2022-11-04T01:14:23.334Z,10.01
2022-11-04T01:15:25.198Z,10.02
2022-11-04T01:17:30.421Z,10.05
2022-11-04T01:18:32.305Z,10.02
2022-11-04T01:19:34.348Z,10.02
2022-11-04T01:20:36.377Z,10.03
2022-11-04T01:21:38.288Z,10.01
2022-11-04T01:22:40.828Z,10.01
2022-11-04T01:23:44.246Z,10.03
2022-11-04T01:24:46.081Z,10.06
2022-11-04T01:25:47.953Z,10.09
2022-11-04T01:26:49.721Z,10.09
2022-11-04T01:27:51.749Z,10.05
2022-11-04T01:28:55.275Z,10.08
2022-11-04T01:29:57.282Z,10.07
2022-11-04T01:30:59.582Z,10.05
2022-11-04T01:32:02.412Z,10.04
2022-11-04T01:33:04.457Z,10.04
2022-11-04T01:34:07.094Z,10.07
2022-11-04T01:35:09.699Z,10.10
2022-11-04T01:36:13.628Z,10.11
2022-11-04T01:37:17.456Z,10.15
2022-11-04T01:38:19.265Z,10.13
2022-11-04T01:39:20.999Z,10.04
2022-11-04T01:40:22.867Z,10.09
2022-11-04T01:41:27.927Z,10.14
2022-11-04T01:42:29.865Z,10.13
2022-11-04T01:43:53.685Z,10.06
2022-11-04T01:45:00.611Z,10.06
2022-11-04T01:46:03.646Z,10.06
2022-11-04T01:47:07.773Z,9.98
2022-11-04T01:48:17.984Z,9.98
2022-11-04T01:49:29.945Z,9.88
2022-11-04T01:50:34.280Z,9.91
2022-11-04T01:51:39.600Z,9.96
2022-11-04T01:53:00.031Z,9.98
2022-11-04T01:54:05.560Z,9.77
2022-11-04T01:55:11.128Z,9.79
2022-11-04T01:56:15.182Z,9.85
2022-11-04T01:57:20.453Z,9.75
2022-11-04T01:58:32.063Z,9.70
2022-11-04T01:59:37.655Z,9.77
2022-11-04T02:00:41.474Z,9.89
2022-11-04T02:01:44.856Z,9.96
2022-11-04T02:02:59.442Z,9.69
2022-11-04T02:04:01.584Z,9.66
2022-11-04T02:05:03.710Z,9.47
2022-11-04T02:06:07.556Z,9.35
2022-11-04T02:07:10.713Z,9.00
2022-11-04T02:08:15.693Z,8.94
2022-11-04T02:09:19.464Z,8.79
2022-11-04T02:10:24.893Z,8.84
2022-11-04T02:11:26.625Z,8.75
2022-11-04T02:12:28.447Z,8.61
2022-11-04T02:13:33.598Z,8.56
2022-11-04T02:14:36.824Z,8.54
2022-11-04T02:15:54.586Z,8.52
2022-11-04T02:17:21.416Z,8.53
2022-11-04T02:18:38.865Z,8.60
2022-11-04T02:19:53.440Z,8.63
2022-11-04T02:21:19.158Z,8.59
2022-11-04T02:22:49.748Z,8.59
2022-11-04T02:24:19.735Z,8.56
2022-11-04T02:25:31.103Z,8.71
2022-11-04T02:26:39.628Z,8.79
2022-11-04T02:28:02.057Z,8.91
2022-11-04T02:29:22.509Z,8.87
2022-11-04T02:30:26.654Z,8.94
2022-11-04T02:31:41.371Z,8.98
2022-11-04T02:32:55.955Z,8.92
2022-11-04T02:34:04.549Z,8.85
2022-11-04T02:35:19.030Z,8.84
2022-11-04T02:36:24.661Z,8.91
2022-11-04T02:37:59.140Z,8.97
2022-11-04T02:39:23.188Z,9.13
2022-11-04T02:40:41.140Z,9.33
2022-11-04T02:41:55.826Z,9.39
2022-11-04T02:43:01.442Z,9.24
2022-11-04T02:44:15.471Z,9.19
2022-11-04T02:47:07.460Z,8.76
2022-11-04T02:48:34.576Z,8.63
2022-11-04T02:49:49.177Z,8.52
2022-11-04T02:50:57.673Z,8.42
2022-11-04T02:52:12.127Z,8.46
2022-11-04T02:53:32.093Z,8.46
2022-11-04T02:54:43.603Z,8.45
2022-11-04T02:55:51.916Z,8.52
2022-11-04T02:56:57.512Z,8.61
2022-11-04T02:58:04.024Z,8.58
2022-11-04T02:59:12.559Z,8.55
2022-11-04T03:00:15.429Z,8.59
2022-11-04T03:01:20.337Z,8.51
2022-11-04T03:02:28.690Z,8.44
2022-11-04T03:03:34.338Z,8.45
2022-11-04T03:04:39.993Z,8.55
2022-11-04T03:05:45.563Z,8.61
2022-11-04T03:06:50.220Z,8.57
2022-11-04T03:07:55.792Z,8.57
2022-11-04T03:09:00.436Z,8.52
2022-11-04T03:10:06.396Z,8.53
2022-11-04T03:11:15.458Z,8.54
2022-11-04T03:12:21.065Z,8.61
2022-11-04T03:13:38.904Z,8.67
2022-11-04T03:14:44.388Z,8.76
2022-11-04T03:15:50.912Z,8.67
2022-11-04T03:16:56.525Z,8.69
2022-11-04T03:18:08.328Z,8.63
2022-11-04T03:19:26.480Z,8.67
2022-11-04T03:20:30.619Z,8.68
2022-11-04T03:21:35.327Z,8.77
2022-11-04T03:22:38.332Z,8.73
2022-11-04T03:23:40.920Z,8.73
2022-11-04T03:24:45.262Z,8.67
2022-11-04T03:25:50.849Z,8.68
2022-11-04T03:27:08.490Z,8.68
2022-11-04T03:28:30.891Z,8.64
2022-11-04T03:29:39.280Z,8.46
2022-11-04T03:30:45.168Z,8.43
2022-11-04T03:32:03.427Z,8.49
2022-11-04T03:33:30.341Z,8.55
2022-11-04T03:34:32.773Z,8.66
2022-11-04T03:35:34.680Z,8.56
2022-11-04T03:36:36.883Z,8.58
2022-11-04T03:37:38.869Z,8.60
2022-11-04T03:38:40.951Z,8.58
2022-11-04T03:39:42.952Z,8.47
2022-11-04T03:40:46.300Z,8.41
2022-11-04T03:41:51.866Z,8.30
2022-11-04T03:42:57.336Z,8.33
2022-11-04T03:43:59.470Z,8.25
2022-11-04T03:45:02.696Z,8.29
2022-11-04T03:46:05.074Z,8.36
2022-11-04T03:47:08.049Z,8.31
2022-11-04T03:48:10.908Z,8.37
2022-11-04T03:49:14.537Z,8.31
2022-11-04T03:50:29.243Z,8.38
2022-11-04T03:51:31.105Z,8.41
2022-11-04T03:52:33.710Z,8.43
2022-11-04T03:53:35.831Z,8.42
2022-11-04T03:54:38.509Z,8.40
2022-11-04T03:55:46.912Z,8.39
2022-11-04T03:57:08.615Z,8.30
2022-11-04T03:58:29.623Z,8.31
2022-11-04T04:01:29.673Z,8.45
2022-11-04T04:02:35.936Z,8.36
2022-11-04T04:03:44.318Z,8.30
2022-11-04T04:05:01.853Z,8.27
2022-11-04T04:06:08.919Z,8.31
2022-11-04T04:07:14.415Z,8.29
2022-11-04T04:08:48.977Z,8.33
2022-11-04T04:09:57.252Z,8.38
2022-11-04T04:11:18.291Z,8.44
2022-11-04T04:12:23.888Z,8.40
2022-11-04T04:13:35.430Z,8.35
2022-11-04T04:14:44.153Z,8.26
2022-11-04T04:15:58.596Z,8.29
2022-11-04T04:17:04.242Z,8.23
2022-11-04T04:18:10.145Z,8.23
2022-11-04T04:19:18.935Z,8.24
2022-11-04T04:20:24.495Z,8.27
2022-11-04T04:21:39.086Z,8.26
2022-11-04T04:22:51.138Z,8.25
2022-11-04T04:23:56.372Z,8.29
2022-11-04T04:25:01.784Z,8.21
2022-11-04T04:26:07.678Z,8.25
2022-11-04T04:27:13.213Z,8.25
2022-11-04T04:28:18.947Z,8.22
2022-11-04T04:29:22.901Z,8.14
2022-11-04T04:30:25.342Z,8.05
2022-11-04T04:31:29.981Z,8.07
2022-11-04T04:32:44.531Z,8.12
2022-11-04T04:33:46.686Z,8.12
2022-11-04T04:34:48.544Z,8.18
2022-11-04T04:35:56.837Z,8.27
2022-11-04T04:37:08.428Z,8.27
2022-11-04T04:38:25.962Z,8.18
2022-11-04T04:39:43.670Z,8.27
2022-11-04T04:40:49.335Z,8.30
2022-11-04T04:41:53.775Z,8.29
2022-11-04T04:42:55.715Z,8.28
2022-11-04T04:43:58.332Z,8.32
2022-11-04T04:45:03.587Z,8.35
2022-11-04T06:51:30.535Z,8.21
2022-11-04T06:52:32.401Z,8.07
2022-11-04T06:53:34.232Z,8.01
2022-11-04T06:54:35.929Z,8.03
2022-11-04T06:55:38.096Z,8.09
2022-11-04T06:56:40.405Z,8.08
2022-11-04T06:57:42.170Z,8.04
2022-11-04T06:58:49.412Z,8.11
2022-11-04T06:59:51.219Z,8.14
2022-11-04T07:00:53.142Z,8.05
2022-11-04T07:01:56.256Z,7.98
2022-11-04T07:02:59.250Z,7.98
2022-11-04T07:04:02.922Z,8.12
2022-11-04T07:05:05.521Z,8.18
2022-11-04T07:06:09.665Z,8.19
2022-11-04T07:07:11.608Z,8.12
2022-11-04T07:08:14.075Z,8.16
2022-11-04T07:09:17.025Z,8.17
2022-11-04T07:10:20.039Z,8.28
2022-11-04T07:11:23.589Z,8.39
2022-11-04T07:12:25.945Z,8.45
2022-11-04T07:13:28.169Z,8.49
2022-11-04T07:14:30.006Z,8.56
2022-11-04T07:15:32.046Z,8.55
2022-11-04T07:16:34.053Z,8.56
2022-11-04T07:17:36.001Z,8.63
2022-11-04T07:18:38.422Z,8.56
2022-11-04T07:19:40.221Z,8.52
2022-11-04T07:20:42.998Z,8.53
2022-11-04T07:21:45.161Z,8.52
2022-11-04T07:22:47.079Z,8.49
2022-11-04T07:23:48.837Z,8.52
2022-11-04T07:24:50.692Z,8.65
2022-11-04T07:25:52.440Z,8.59
2022-11-04T07:26:54.899Z,8.62
2022-11-04T07:28:01.064Z,8.62
2022-11-04T07:29:01.020Z,8.67
2022-11-04T07:30:04.255Z,8.63
2022-11-04T07:31:07.966Z,8.59
2022-11-04T07:32:10.045Z,8.71
2022-11-04T07:33:11.999Z,8.63
2022-11-04T07:34:14.482Z,8.58
2022-11-04T07:35:16.729Z,8.51
2022-11-04T07:36:19.802Z,8.42
2022-11-04T07:37:21.549Z,8.47
2022-11-04T07:38:24.159Z,8.54
2022-11-04T07:39:25.999Z,8.58
2022-11-04T07:40:27.737Z,8.63
2022-11-04T07:41:29.515Z,8.65
2022-11-04T07:42:31.801Z,8.65
2022-11-04T07:43:35.610Z,8.76
2022-11-04T07:44:38.651Z,8.69
2022-11-04T07:45:40.722Z,8.73
2022-11-04T07:46:43.067Z,8.79
2022-11-04T07:47:45.175Z,8.69
2022-11-04T07:48:47.723Z,8.71
2022-11-04T07:49:49.564Z,8.71
2022-11-04T07:50:57.541Z,8.66
2022-11-04T07:51:59.656Z,8.52
2022-11-04T07:53:01.593Z,8.38
2022-11-04T07:54:03.968Z,8.43
2022-11-04T07:55:06.721Z,8.50
2022-11-04T07:56:11.759Z,8.65
2022-11-04T07:57:13.688Z,8.71
2022-11-04T07:58:16.082Z,8.69
2022-11-04T07:59:17.932Z,8.68
2022-11-04T08:00:20.047Z,8.59
2022-11-04T08:01:24.030Z,8.53
2022-11-04T08:02:31.095Z,8.46
2022-11-04T08:03:30.413Z,8.47
2022-11-04T08:04:33.855Z,8.50
2022-11-04T08:05:35.817Z,8.53
2022-11-04T08:06:37.640Z,8.65
2022-11-04T08:07:40.609Z,8.67
2022-11-04T08:08:43.573Z,8.67
2022-11-04T08:09:47.205Z,8.71
2022-11-04T08:10:54.885Z,8.77
2022-11-04T08:11:56.738Z,8.81
2022-11-04T08:12:58.674Z,8.74
2022-11-04T08:14:03.482Z,8.75
2022-11-04T08:15:08.012Z,8.73
2022-11-04T08:16:13.666Z,8.75
2022-11-04T08:17:16.310Z,8.77
2022-11-04T08:18:19.117Z,8.81
2022-11-04T08:19:21.023Z,8.77
2022-11-04T08:20:22.803Z,8.88
2022-11-04T08:21:24.676Z,9.03
2022-11-04T08:22:30.270Z,9.02
2022-11-04T08:23:32.251Z,9.15
2022-11-04T08:24:34.405Z,9.13
2022-11-04T08:25:36.145Z,9.09
2022-11-04T08:26:38.432Z,9.07
2022-11-04T08:27:40.751Z,9.09
2022-11-04T08:28:42.752Z,9.04
2022-11-04T08:29:44.560Z,8.99
2022-11-04T08:30:55.897Z,8.96
2022-11-04T08:31:57.802Z,9.08
2022-11-04T08:33:01.805Z,9.19
2022-11-04T08:34:04.781Z,9.19
2022-11-04T08:35:07.468Z,9.18
2022-11-04T08:36:17.712Z,9.20
2022-11-04T08:37:23.524Z,9.31
2022-11-04T08:38:25.365Z,9.43
2022-11-04T08:39:27.130Z,9.45
2022-11-04T08:40:29.072Z,9.43
2022-11-04T08:41:33.424Z,9.56
2022-11-04T08:42:36.676Z,9.30
2022-11-04T08:43:39.032Z,9.30
2022-11-04T08:44:41.991Z,9.18
2022-11-04T08:45:45.889Z,9.10
2022-11-04T08:46:48.901Z,9.10
2022-11-04T08:47:50.824Z,9.19
2022-11-04T08:48:52.709Z,9.23
2022-11-04T08:49:54.665Z,9.11
2022-11-04T08:50:57.710Z,8.97
2022-11-04T08:51:59.749Z,8.93
2022-11-04T08:53:03.930Z,8.95
2022-11-04T08:54:07.026Z,8.99
2022-11-04T08:55:10.181Z,9.03
2022-11-04T08:56:19.330Z,9.09
2022-11-04T08:57:21.300Z,9.02
2022-11-04T08:58:23.801Z,8.94
2022-11-04T08:59:25.502Z,8.91
2022-11-04T09:00:27.845Z,8.94
2022-11-04T09:01:35.882Z,8.97
2022-11-04T09:02:37.529Z,9.05
2022-11-04T09:03:40.727Z,9.05
2022-11-04T09:04:42.625Z,9.08
2022-11-04T09:05:44.462Z,9.18
2022-11-04T09:06:47.902Z,9.11
2022-11-04T09:07:50.211Z,9.08
2022-11-04T09:08:53.851Z,9.15
2022-11-04T09:09:55.648Z,9.12
2022-11-04T09:10:58.693Z,9.14
2022-11-04T09:12:00.641Z,9.14
2022-11-04T09:13:03.605Z,9.22
2022-11-04T09:14:06.114Z,9.22
2022-11-04T09:15:09.365Z,9.30
2022-11-04T09:16:14.197Z,9.36
2022-11-04T09:17:16.281Z,9.54
2022-11-04T09:18:18.825Z,9.46
2022-11-04T09:19:20.909Z,9.46
2022-11-04T09:20:23.835Z,9.35
2022-11-04T09:21:26.798Z,9.43
2022-11-04T09:22:28.673Z,9.46
2022-11-04T09:23:32.149Z,9.47
2022-11-04T09:24:35.163Z,9.50
2022-11-04T09:25:37.337Z,9.53
2022-11-04T09:26:39.267Z,9.62
2022-11-04T09:27:41.038Z,9.48
2022-11-04T09:28:43.053Z,9.49
2022-11-04T09:29:45.086Z,9.60
2022-11-04T09:30:50.552Z,9.72
2022-11-04T09:31:53.057Z,9.78
2022-11-04T09:32:54.920Z,9.69
2022-11-04T09:33:57.070Z,9.86
2022-11-04T09:34:59.002Z,10.02
2022-11-04T09:36:00.833Z,10.07
2022-11-04T09:37:02.802Z,9.93
2022-11-04T09:38:05.280Z,9.99
2022-11-04T09:39:07.104Z,10.03
2022-11-04T09:41:35.318Z,10.39
2022-11-04T09:42:43.666Z,10.20
2022-11-04T09:43:50.311Z,10.19
2022-11-04T09:46:13.285Z,9.97
2022-11-04T09:47:21.644Z,9.97
2022-11-04T09:48:25.323Z,10.02
2022-11-04T09:49:30.882Z,10.06
2022-11-04T09:50:36.500Z,9.96
2022-11-04T09:51:53.818Z,9.84
2022-11-04T09:52:48.661Z,9.69
2022-11-04T09:53:54.182Z,9.92
2022-11-04T09:55:17.732Z,9.99
2022-11-04T09:56:22.566Z,9.96
2022-11-04T09:57:25.336Z,9.96
2022-11-04T09:58:30.687Z,9.93
2022-11-04T09:59:33.946Z,9.92
2022-11-04T10:00:39.323Z,9.89
2022-11-04T10:01:55.446Z,9.89
2022-11-04T10:03:04.196Z,10.00
2022-11-04T10:04:25.804Z,10.05
2022-11-04T10:05:34.543Z,10.19
2022-11-04T10:07:03.084Z,10.17
2022-11-04T10:08:38.054Z,9.97
2022-11-04T10:10:03.787Z,10.00
2022-11-04T10:11:12.126Z,9.72
2022-11-04T10:12:23.503Z,9.70
2022-11-04T10:13:31.830Z,9.98
2022-11-04T10:14:47.375Z,9.97
2022-11-04T10:16:14.454Z,9.95
2022-11-04T10:19:06.179Z,10.27
2022-11-04T10:20:28.646Z,10.32
2022-11-04T10:21:40.600Z,10.47
2022-11-04T10:22:58.165Z,10.51
2022-11-04T10:25:16.090Z,10.70
2022-11-04T10:26:24.383Z,10.67
2022-11-04T10:27:35.446Z,10.68
2022-11-04T10:28:43.662Z,10.74
2022-11-04T10:29:55.688Z,10.73
2022-11-04T10:30:59.323Z,10.59
2022-11-04T10:32:04.663Z,10.33
2022-11-04T10:33:13.150Z,10.28
2022-11-04T10:34:18.998Z,10.25
2022-11-04T10:35:31.570Z,10.24
2022-11-04T10:36:35.675Z,10.47
2022-11-04T10:37:37.624Z,10.49
2022-11-04T10:38:46.972Z,10.66
2022-11-04T10:39:49.047Z,10.66
2022-11-04T10:40:54.056Z,10.56
2022-11-04T10:41:57.166Z,10.46
2022-11-04T10:43:03.087Z,10.32
2022-11-04T14:37:55.903Z,8.60
2022-11-04T14:39:13.548Z,8.54
2022-11-04T14:40:29.177Z,8.52
2022-11-04T14:41:41.450Z,8.81
2022-11-04T14:42:50.579Z,9.25
2022-11-04T14:43:58.879Z,9.13
2022-11-04T14:45:01.376Z,9.09
2022-11-04T14:46:03.722Z,8.87
2022-11-04T14:47:22.088Z,8.94
2022-11-04T14:48:24.472Z,8.98
2022-11-04T14:49:29.978Z,9.03
2022-11-04T14:50:32.245Z,9.05
2022-11-04T14:51:39.731Z,9.13
2022-11-04T14:52:45.796Z,9.38
2022-11-04T14:53:48.681Z,9.41
2022-11-04T14:55:03.323Z,9.38
2022-11-04T14:56:23.506Z,9.34
2022-11-04T14:57:24.020Z,9.35
2022-11-04T14:58:27.608Z,9.42
2022-11-04T14:59:29.583Z,9.45
2022-11-04T15:00:38.848Z,9.54
2022-11-04T15:01:42.361Z,9.67
2022-11-04T15:02:45.604Z,9.36
2022-11-04T15:05:02.091Z,9.36
2022-11-04T15:06:06.696Z,9.24
2022-11-04T15:07:12.427Z,9.22
2022-11-04T15:08:41.570Z,9.09
2022-11-04T15:09:49.241Z,9.09
2022-11-04T15:10:53.424Z,8.97
2022-11-04T15:12:14.535Z,8.86
2022-11-04T15:13:19.862Z,8.84
2022-11-04T15:14:24.530Z,8.67
2022-11-04T15:15:39.319Z,8.54
2022-11-04T15:16:44.140Z,8.58
2022-11-04T15:17:47.240Z,8.56
2022-11-04T15:18:51.993Z,8.54
2022-11-04T15:19:56.838Z,8.53
2022-11-04T15:21:02.187Z,8.52
2022-11-04T15:22:06.222Z,8.48
2022-11-04T15:23:12.663Z,8.41
2022-11-04T15:24:17.308Z,8.34
2022-11-04T15:25:19.525Z,8.34
2022-11-04T15:26:30.151Z,8.37
2022-11-04T15:27:32.435Z,8.33
2022-11-04T15:28:38.001Z,8.28
2022-11-04T15:29:40.092Z,8.27
2022-11-04T15:30:41.916Z,8.24
2022-11-04T15:31:57.011Z,8.14
2022-11-04T15:33:01.935Z,8.22
2022-11-04T15:34:09.196Z,8.22
2022-11-04T15:35:12.756Z,8.21
2022-11-04T15:36:26.075Z,8.22
2022-11-04T15:37:32.626Z,8.22
2022-11-04T15:38:37.726Z,8.29
2022-11-04T15:39:43.892Z,8.29
2022-11-04T15:40:46.788Z,8.35
2022-11-04T15:43:05.026Z,8.40
2022-11-04T15:44:19.529Z,8.26
2022-11-04T15:45:41.293Z,8.22
2022-11-04T15:46:52.119Z,8.26
2022-11-04T15:48:24.399Z,8.25
2022-11-04T15:49:30.750Z,8.30
2022-11-04T15:50:33.907Z,8.38
2022-11-04T15:51:42.700Z,8.31
2022-11-04T15:52:51.881Z,8.35
2022-11-04T15:54:03.493Z,8.35
2022-11-04T15:55:08.585Z,8.30
2022-11-04T15:56:17.857Z,8.24
2022-11-04T15:57:27.572Z,8.24
2022-11-04T15:58:30.532Z,8.35
2022-11-04T15:59:36.075Z,8.36
2022-11-04T16:00:39.851Z,8.30
2022-11-04T16:01:48.935Z,8.40
2022-11-04T16:02:54.393Z,8.44
2022-11-04T16:03:59.471Z,8.31
2022-11-04T16:05:13.292Z,8.21
2022-11-04T16:06:15.369Z,8.17
2022-11-04T16:07:22.601Z,8.12
2022-11-04T16:08:28.363Z,8.25
2022-11-04T16:09:30.269Z,8.36
2022-11-04T16:10:35.167Z,8.20
2022-11-04T16:11:37.780Z,8.10
2022-11-04T16:12:44.153Z,8.05
2022-11-04T16:13:46.334Z,8.06
2022-11-04T16:14:53.370Z,7.94
2022-11-04T16:16:02.162Z,7.94
2022-11-04T16:17:07.283Z,7.95
2022-11-04T16:18:24.945Z,7.86
2022-11-04T16:19:29.629Z,7.76
2022-11-04T16:20:33.278Z,7.76
2022-11-04T16:21:36.615Z,7.74
2022-11-04T16:22:39.937Z,7.72
2022-11-04T16:23:49.252Z,7.71
2022-11-04T16:24:53.498Z,7.70
2022-11-04T16:25:58.982Z,7.70
2022-11-04T16:27:01.031Z,7.67
2022-11-04T16:28:03.223Z,7.57
2022-11-04T16:29:08.865Z,7.51
2022-11-04T16:30:20.408Z,7.50
2022-11-04T16:31:26.866Z,7.45
2022-11-04T16:32:34.591Z,7.44
2022-11-04T16:33:38.150Z,7.48
2022-11-04T16:34:40.448Z,7.45
2022-11-04T16:35:42.295Z,7.39
2022-11-04T16:36:44.301Z,7.36
2022-11-04T16:37:46.655Z,7.37
2022-11-04T16:38:54.662Z,7.37
2022-11-04T16:39:58.324Z,7.45
2022-11-04T16:41:00.873Z,7.47
2022-11-04T16:42:04.676Z,7.37
2022-11-04T16:43:10.480Z,7.45
2022-11-04T16:44:22.213Z,7.50
2022-11-04T16:45:28.082Z,7.53
2022-11-04T16:46:33.641Z,7.43
2022-11-04T16:47:39.099Z,7.35
2022-11-04T16:48:41.638Z,7.35
2022-11-04T16:49:44.592Z,7.37
2022-11-04T16:50:47.280Z,7.36
2022-11-04T16:51:55.006Z,7.34
2022-11-04T16:52:58.522Z,7.40
2022-11-04T16:54:01.231Z,7.50
2022-11-04T16:55:04.282Z,7.55
2022-11-04T16:56:08.731Z,7.48
2022-11-04T16:57:13.084Z,7.48
2022-11-04T16:58:18.225Z,7.57
2022-11-04T16:59:20.959Z,7.61
2022-11-04T17:00:26.335Z,7.56
2022-11-04T17:01:29.025Z,7.59
2022-11-04T17:02:34.405Z,7.71
2022-11-04T17:03:36.506Z,7.81
2022-11-04T17:04:38.266Z,7.70
2022-11-04T17:05:40.204Z,7.72
2022-11-04T17:06:43.178Z,7.70
2022-11-04T17:07:55.537Z,7.70
2022-11-04T17:08:49.365Z,7.58
2022-11-04T17:09:51.131Z,7.61
2022-11-04T17:10:53.307Z,7.59
2022-11-04T17:11:55.841Z,7.62
2022-11-04T17:12:59.411Z,7.66
2022-11-04T17:14:01.930Z,7.67
2022-11-04T17:15:05.668Z,7.63
2022-11-04T17:16:16.276Z,7.73
2022-11-04T17:17:18.631Z,7.65
2022-11-04T17:18:20.343Z,7.65
2022-11-04T17:19:22.573Z,7.55
2022-11-04T17:20:25.086Z,7.39
2022-11-04T17:21:27.656Z,7.43
2022-11-04T17:22:32.225Z,7.42
2022-11-04T17:23:34.859Z,7.44
2022-11-04T17:24:37.159Z,7.48
2022-11-04T17:25:39.866Z,7.46
2022-11-04T17:26:41.636Z,7.43
2022-11-04T17:27:52.011Z,7.40
2022-11-04T17:28:54.897Z,7.45
2022-11-04T17:29:56.776Z,7.61
2022-11-04T17:30:59.900Z,7.71
2022-11-04T17:32:01.885Z,7.70
2022-11-04T17:33:04.353Z,7.75
2022-11-04T17:34:07.154Z,7.71
2022-11-04T17:35:12.110Z,7.64
2022-11-04T17:36:18.626Z,7.73
2022-11-04T17:37:20.827Z,7.80
2022-11-04T17:38:23.966Z,7.86
2022-11-04T17:39:27.330Z,7.93
2022-11-04T17:40:29.493Z,7.84
2022-11-04T17:41:32.421Z,7.86
2022-11-04T17:42:34.201Z,7.72
2022-11-04T17:43:36.738Z,7.64
2022-11-04T17:44:38.696Z,7.54
2022-11-04T17:45:42.921Z,7.65
2022-11-04T17:46:44.989Z,7.74
2022-11-04T17:47:46.886Z,7.63
2022-11-04T17:48:48.938Z,7.63
2022-11-04T17:49:51.998Z,7.62
2022-11-04T17:50:54.317Z,7.58
2022-11-04T17:51:57.742Z,7.59
2022-11-04T17:53:00.591Z,7.64
2022-11-04T17:54:03.230Z,7.73
2022-11-04T17:55:05.765Z,7.73
2022-11-04T17:56:20.418Z,7.58
2022-11-04T17:57:22.838Z,7.55
2022-11-04T17:58:25.326Z,7.44
2022-11-04T21:00:58.291Z,6.69
2022-11-04T21:02:00.604Z,6.60
2022-11-04T21:03:02.656Z,6.64
2022-11-04T21:04:07.574Z,6.70
2022-11-04T21:05:09.435Z,6.77
2022-11-04T21:06:13.828Z,6.88
2022-11-04T21:07:17.333Z,7.03
2022-11-04T21:08:19.603Z,7.18
2022-11-04T21:09:21.753Z,7.35
2022-11-04T21:10:24.962Z,7.48
2022-11-04T21:11:31.931Z,7.62
2022-11-04T21:12:32.233Z,7.75
2022-11-04T21:13:35.402Z,7.84
2022-11-04T21:14:37.518Z,7.97
2022-11-04T21:15:39.581Z,8.02
2022-11-04T21:16:48.683Z,8.12
2022-11-04T21:17:56.511Z,8.21
2022-11-04T21:19:08.586Z,8.35
2022-11-04T21:20:35.973Z,8.31
2022-11-04T21:22:12.843Z,8.34
2022-11-04T21:26:43.409Z,8.43
2022-11-04T21:27:45.531Z,8.39
2022-11-04T21:28:48.405Z,8.23
2022-11-04T21:29:50.177Z,8.10
2022-11-04T21:30:53.639Z,8.14
2022-11-04T21:31:55.565Z,8.19
2022-11-04T21:32:57.295Z,8.30
2022-11-04T21:33:59.750Z,8.38
2022-11-04T21:35:01.454Z,8.43
2022-11-04T21:36:09.530Z,8.51
2022-11-04T21:37:11.993Z,8.53
2022-11-04T21:38:15.882Z,8.59
2022-11-04T21:39:18.201Z,8.64
2022-11-04T21:40:21.364Z,8.69
2022-11-04T21:41:25.286Z,8.72
2022-11-04T21:42:29.724Z,8.76
2022-11-04T21:43:31.691Z,8.82
2022-11-04T21:44:33.923Z,8.82
2022-11-04T21:45:35.931Z,8.84
2022-11-04T21:46:38.234Z,8.89
2022-11-04T21:47:39.993Z,8.91
2022-11-04T21:48:42.466Z,8.90
2022-11-04T21:49:45.452Z,8.91
2022-11-04T21:50:47.465Z,8.87
2022-11-04T21:51:49.915Z,8.81
2022-11-04T21:52:51.843Z,8.82
2022-11-04T21:53:55.084Z,8.80
2022-11-04T21:54:57.468Z,8.77
2022-11-04T21:56:21.374Z,8.75
2022-11-04T21:57:23.225Z,8.72
2022-11-04T21:58:25.876Z,8.72
2022-11-04T21:59:28.160Z,8.68
2022-11-04T22:00:29.970Z,8.66
2022-11-04T22:01:33.580Z,8.63
2022-11-04T22:02:38.800Z,8.61
2022-11-04T22:03:42.235Z,8.58
2022-11-04T22:04:44.077Z,8.57
2022-11-04T22:05:47.607Z,8.38
2022-11-04T22:06:49.593Z,8.31
2022-11-04T22:07:51.404Z,8.32
2022-11-04T22:08:54.242Z,8.29
2022-11-04T22:09:56.174Z,8.26
2022-11-04T22:12:17.975Z,8.35
2022-11-04T22:13:21.186Z,8.22
2022-11-04T22:14:23.014Z,8.17
2022-11-04T22:15:25.841Z,8.15
2022-11-04T22:16:30.264Z,8.14
2022-11-04T22:17:33.227Z,8.19
2022-11-04T22:18:35.197Z,8.13
2022-11-04T22:19:36.943Z,8.12
2022-11-04T22:20:38.998Z,8.13
2022-11-04T22:21:43.973Z,8.05
2022-11-04T22:22:47.906Z,8.05
2022-11-04T22:23:50.958Z,8.03
2022-11-04T22:24:52.752Z,8.03
2022-11-04T22:26:06.170Z,8.04
2022-11-04T22:27:08.002Z,8.02
2022-11-04T22:28:09.850Z,7.99
2022-11-04T22:29:16.455Z,7.98
2022-11-04T22:30:18.727Z,7.92
2022-11-04T22:31:26.688Z,7.91
2022-11-04T22:32:28.984Z,7.89
2022-11-04T22:33:32.028Z,7.86
2022-11-04T22:34:35.181Z,7.83
2022-11-04T22:35:37.207Z,7.82
2022-11-04T22:36:39.312Z,7.79
2022-11-04T22:37:41.026Z,7.79
2022-11-04T22:38:43.565Z,7.79
2022-11-04T22:39:45.522Z,7.78
2022-11-04T22:40:56.088Z,7.81
2022-11-04T22:41:59.001Z,7.86
2022-11-04T22:43:01.334Z,7.92
2022-11-04T22:44:03.495Z,7.98
2022-11-04T22:45:06.205Z,7.96
2022-11-04T22:46:19.667Z,8.00
2022-11-04T22:47:21.917Z,8.03
2022-11-04T22:48:23.828Z,8.02
2022-11-04T22:49:25.706Z,8.03
2022-11-04T22:50:27.417Z,8.04
2022-11-04T22:51:29.176Z,8.05
2022-11-04T22:52:30.988Z,8.00
2022-11-04T22:53:32.899Z,8.00
2022-11-04T22:54:35.119Z,8.01
2022-11-04T22:55:37.565Z,7.99
2022-11-04T22:56:39.699Z,7.98
2022-11-04T22:57:41.498Z,8.00
2022-11-04T22:58:44.126Z,7.99
2022-11-04T22:59:45.907Z,7.97
2022-11-04T23:00:51.906Z,7.94
2022-11-04T23:01:53.864Z,7.94
2022-11-04T23:02:58.401Z,7.96
2022-11-04T23:04:00.675Z,8.01
2022-11-04T23:05:03.013Z,8.02
2022-11-04T23:06:06.597Z,8.04
2022-11-04T23:07:08.474Z,8.05
2022-11-04T23:08:10.199Z,8.05
2022-11-04T23:09:12.561Z,8.00
2022-11-04T23:10:14.720Z,7.98
2022-11-04T23:11:20.243Z,7.94
2022-11-04T23:12:22.745Z,7.91
2022-11-04T23:13:24.460Z,7.84
2022-11-04T23:14:26.760Z,7.81
2022-11-04T23:15:29.486Z,7.77
2022-11-04T23:16:31.895Z,7.78
2022-11-04T23:17:34.767Z,7.77
2022-11-04T23:18:37.524Z,7.81
2022-11-04T23:19:39.425Z,7.83
2022-11-04T23:20:41.408Z,7.86
2022-11-04T23:21:43.265Z,7.86
2022-11-04T23:22:45.941Z,7.82
2022-11-04T23:23:47.847Z,7.82
2022-11-04T23:24:50.138Z,7.86
2022-11-04T23:25:52.406Z,7.84
2022-11-04T23:26:56.101Z,7.83
2022-11-04T23:27:59.646Z,7.84
2022-11-04T23:29:01.653Z,7.84
2022-11-04T23:30:10.568Z,7.81
2022-11-04T23:31:12.802Z,7.79
2022-11-04T23:32:14.613Z,7.78
2022-11-04T23:33:16.575Z,7.78
2022-11-04T23:34:18.511Z,7.74
2022-11-04T23:35:23.260Z,7.72
2022-11-04T23:36:25.237Z,7.72
2022-11-04T23:37:27.273Z,7.72
2022-11-04T23:38:29.471Z,7.71
2022-11-04T23:39:32.356Z,7.69
2022-11-04T23:40:34.431Z,7.68
2022-11-04T23:41:36.335Z,7.64
2022-11-04T23:42:38.248Z,7.54
2022-11-04T23:43:40.442Z,7.49
2022-11-04T23:44:54.057Z,7.47